createdAt,value
2018-12-13T00:00:29.606Z,-0.73
2018-12-13T00:03:08.385Z,-0.71
2018-12-13T00:05:43.059Z,-0.64
2018-12-13T00:08:19.395Z,-0.67
2018-12-13T00:10:51.640Z,-0.59
2018-12-13T00:13:23.608Z,-0.44
2018-12-13T00:15:59.656Z,-0.36
2018-12-13T00:18:35.741Z,-0.26
2018-12-13T00:21:08.100Z,-0.24
2018-12-13T00:23:40.512Z,-0.06
2018-12-13T00:26:12.790Z,-0.05
2018-12-13T00:28:43.812Z,-0.01
2018-12-13T00:31:19.959Z,-0.06
2018-12-13T00:33:56.130Z,-0.04
2018-12-13T00:36:32.179Z,0.05
2018-12-13T00:39:06.221Z,0.11
2018-12-13T00:41:38.639Z,0.13
2018-12-13T00:44:10.924Z,0.18
2018-12-13T00:46:43.233Z,0.27
2018-12-13T00:49:19.382Z,0.34
2018-12-13T00:51:52.374Z,0.41
2018-12-13T00:54:25.288Z,0.46
2018-12-13T00:56:57.655Z,0.42
2018-12-13T00:59:33.979Z,0.37
2018-12-13T01:02:10.924Z,0.49
2018-12-13T01:04:43.925Z,0.44
2018-12-13T01:07:16.973Z,0.44
2018-12-13T01:09:49.299Z,0.56
2018-12-13T01:12:19.643Z,0.46
2018-12-13T01:14:51.895Z,0.60
2018-12-13T01:17:28.288Z,0.64
2018-12-13T01:20:00.440Z,0.66
2018-12-13T01:22:37.171Z,0.55
2018-12-13T01:25:13.479Z,0.53
2018-12-13T01:27:50.592Z,0.59
2018-12-13T01:30:22.917Z,0.68
2018-12-13T01:32:59.969Z,0.77
2018-12-13T01:35:32.576Z,0.74
2018-12-13T01:38:05.454Z,0.84
2018-12-13T01:40:41.650Z,0.76
2018-12-13T01:43:18.106Z,0.78
2018-12-13T01:45:54.157Z,0.89
2018-12-13T01:48:24.386Z,0.94
2018-12-13T01:50:57.333Z,0.98
2018-12-13T01:53:33.731Z,0.96
2018-12-13T01:56:06.538Z,0.85
2018-12-13T01:58:39.204Z,0.88
2018-12-13T02:01:15.468Z,0.80
2018-12-13T02:03:52.568Z,0.74
2018-12-13T02:06:25.588Z,0.71
2018-12-13T02:08:58.596Z,0.72
2018-12-13T02:11:30.610Z,0.73
2018-12-13T02:14:03.013Z,0.68
2018-12-13T02:16:37.013Z,0.79
2018-12-13T02:19:13.189Z,0.90
2018-12-13T02:21:46.130Z,0.84
2018-12-13T02:24:23.313Z,0.91
2018-12-13T02:27:00.213Z,0.90
2018-12-13T02:29:33.393Z,0.90
2018-12-13T02:32:06.425Z,0.93
2018-12-13T02:34:39.206Z,0.97
2018-12-13T02:37:15.489Z,0.95
2018-12-13T02:39:51.561Z,0.94
2018-12-13T02:42:26.452Z,0.97
2018-12-13T02:45:06.449Z,1.01
2018-12-13T02:47:45.829Z,0.88
2018-12-13T02:50:28.529Z,0.92
2018-12-13T02:53:10.525Z,1.00
2018-12-13T02:55:47.310Z,0.98
2018-12-13T02:58:27.260Z,0.91
2018-12-13T03:01:03.992Z,0.92
2018-12-13T03:03:39.382Z,1.00
2018-12-13T03:06:23.798Z,0.96
2018-12-13T03:09:07.657Z,0.97
2018-12-13T03:11:47.811Z,0.89
2018-12-13T03:14:24.685Z,0.90
2018-12-13T03:17:00.307Z,1.01
2018-12-13T03:19:35.161Z,1.01
2018-12-13T03:39:46.101Z,1.00
2018-12-13T03:42:19.770Z,1.05
2018-12-13T03:44:53.446Z,1.20
2018-12-13T03:47:30.281Z,1.26
2018-12-13T03:50:04.809Z,1.20
2018-12-13T03:52:39.921Z,1.14
2018-12-13T03:55:14.745Z,1.12
2018-12-13T03:57:48.900Z,1.08
2018-12-13T04:00:22.114Z,1.14
2018-12-13T04:02:55.971Z,1.14
2018-12-13T04:05:33.680Z,1.15
2018-12-13T04:08:11.230Z,1.16
2018-12-13T04:10:47.707Z,1.19
2018-12-13T04:13:24.671Z,1.14
2018-12-13T04:16:01.571Z,1.14
2018-12-13T04:18:39.429Z,1.21
2018-12-13T04:21:12.855Z,1.20
2018-12-13T04:23:45.689Z,1.15
2018-12-13T04:26:16.637Z,1.22
2018-12-13T04:28:53.614Z,1.25
2018-12-13T04:31:25.635Z,1.16
2018-12-13T04:33:55.637Z,1.19
2018-12-13T04:36:28.572Z,1.10
2018-12-13T04:39:07.877Z,1.06
2018-12-13T04:54:15.836Z,1.20
2018-12-13T04:56:46.093Z,1.28
2018-12-13T04:59:19.088Z,1.35
2018-12-13T05:01:55.391Z,1.22
2018-12-13T05:04:27.454Z,1.14
2018-12-13T05:06:59.696Z,1.11
2018-12-13T05:09:30.643Z,1.15
2018-12-13T05:12:03.990Z,1.04
2018-12-13T05:14:36.977Z,1.05
2018-12-13T05:17:07.892Z,1.08
2018-12-13T05:19:41.035Z,0.99
2018-12-13T05:22:13.365Z,1.02
2018-12-13T05:24:49.410Z,1.02
2018-12-13T05:27:26.371Z,0.91
2018-12-13T05:30:02.536Z,0.92
2018-12-13T05:32:34.807Z,0.97
2018-12-13T05:35:07.784Z,0.95
2018-12-13T05:37:39.948Z,0.90
2018-12-13T05:40:16.558Z,0.94
2018-12-13T05:42:52.607Z,0.91
2018-12-13T05:45:28.675Z,0.89
2018-12-13T05:48:00.740Z,0.87
2018-12-13T05:50:32.959Z,0.88
2018-12-13T05:53:05.192Z,0.87
2018-12-13T06:08:08.798Z,0.73
2018-12-13T06:10:41.709Z,0.66
2018-12-13T06:13:18.921Z,0.59
2018-12-13T06:15:51.961Z,0.61
2018-12-13T06:18:25.136Z,0.54
2018-12-13T06:20:57.305Z,0.53
2018-12-13T06:23:30.463Z,0.59
2018-12-13T06:26:07.629Z,0.49
2018-12-13T06:28:44.657Z,0.43
2018-12-13T06:31:15.014Z,0.42
2018-12-13T06:33:48.236Z,0.39
2018-12-13T06:36:21.536Z,0.36
2018-12-13T06:38:55.494Z,0.28
2018-12-13T06:41:28.303Z,0.27
2018-12-13T06:43:58.674Z,0.31
2018-12-13T06:46:31.653Z,0.19
2018-12-13T06:49:04.168Z,0.19
2018-12-13T06:51:37.040Z,0.19
2018-12-13T06:54:10.114Z,0.15
2018-12-13T06:56:46.896Z,0.23
2018-12-13T06:59:19.208Z,0.24
2018-12-13T07:01:52.109Z,0.17
2018-12-13T07:04:29.016Z,0.21
2018-12-13T07:17:00.514Z,0.15
2018-12-13T07:19:42.455Z,0.25
2018-12-13T07:22:16.703Z,0.20
2018-12-13T07:24:50.528Z,0.22
2018-12-13T07:27:23.311Z,0.24
2018-12-13T07:30:00.215Z,0.15
2018-12-13T07:32:32.940Z,0.18
2018-12-13T07:35:06.605Z,0.20
2018-12-13T07:37:40.294Z,0.24
2018-12-13T07:40:16.432Z,0.24
2018-12-13T07:42:52.607Z,0.29
2018-12-13T07:45:25.563Z,0.32
2018-12-13T07:48:01.884Z,0.35
2018-12-13T07:50:34.140Z,0.33
2018-12-13T07:53:10.320Z,0.34
2018-12-13T07:55:42.716Z,0.26
2018-12-13T07:58:15.089Z,0.29
2018-12-13T08:00:45.509Z,0.25
2018-12-13T08:03:21.685Z,0.28
2018-12-13T08:05:53.770Z,0.36
2018-12-13T08:08:26.204Z,0.39
2018-12-13T08:10:59.204Z,0.35
2018-12-13T08:13:36.227Z,0.33
2018-12-13T08:16:08.635Z,0.37
2018-12-13T08:18:43.139Z,0.38
2018-12-13T08:21:18.255Z,0.47
2018-12-13T08:23:55.384Z,0.43
2018-12-13T08:26:27.803Z,0.44
2018-12-13T08:29:04.635Z,0.39
2018-12-13T08:31:37.559Z,0.41
2018-12-13T08:34:09.819Z,0.41
2018-12-13T08:36:42.799Z,0.36
2018-12-13T08:39:14.889Z,0.34
2018-12-13T08:41:51.853Z,0.33
2018-12-13T08:44:24.232Z,0.36
2018-12-13T08:46:54.431Z,0.35
2018-12-13T08:49:27.510Z,0.38
2018-12-13T08:52:00.565Z,0.37
2018-12-13T08:54:36.711Z,0.34
2018-12-13T08:57:13.536Z,0.37
2018-12-13T08:59:50.050Z,0.34
2018-12-13T09:02:26.412Z,0.35
2018-12-13T09:04:59.449Z,0.34
2018-12-13T09:07:32.479Z,0.34
2018-12-13T09:10:06.546Z,0.29
2018-12-13T09:12:38.893Z,0.33
2018-12-13T09:15:14.991Z,0.25
2018-12-13T09:17:47.384Z,0.23
2018-12-13T09:20:19.586Z,0.26
2018-12-13T09:22:52.661Z,0.28
2018-12-13T09:25:28.889Z,0.31
2018-12-13T09:28:01.995Z,0.36
2018-12-13T09:30:38.881Z,0.40
2018-12-13T09:33:15.433Z,0.44
2018-12-13T09:35:47.555Z,0.38
2018-12-13T09:38:19.719Z,0.37
2018-12-13T09:40:51.934Z,0.37
2018-12-13T09:43:24.249Z,0.44
2018-12-13T09:45:57.189Z,0.45
2018-12-13T09:48:29.578Z,0.44
2018-12-13T09:51:05.915Z,0.35
2018-12-13T09:53:42.193Z,0.30
2018-12-13T09:56:18.385Z,0.24
2018-12-13T09:58:55.459Z,0.31
2018-12-13T10:01:26.458Z,0.30
2018-12-13T10:03:59.699Z,0.37
2018-12-13T10:06:36.672Z,0.42
2018-12-13T10:09:08.964Z,0.44
2018-12-13T10:11:42.225Z,0.52
2018-12-13T10:14:15.218Z,0.45
2018-12-13T10:16:52.312Z,0.47
2018-12-13T10:19:29.375Z,0.56
2018-12-13T10:22:02.222Z,0.54
2018-12-13T10:24:34.611Z,0.56
2018-12-13T10:27:06.673Z,0.56
2018-12-13T10:29:38.885Z,0.59
2018-12-13T10:32:14.993Z,0.54
2018-12-13T10:34:47.423Z,0.59
2018-12-13T10:37:20.148Z,0.56
2018-12-13T10:39:52.539Z,0.56
2018-12-13T10:42:25.061Z,0.56
2018-12-13T10:45:01.271Z,0.61
2018-12-13T10:47:37.457Z,0.58
2018-12-13T10:50:09.942Z,0.61
2018-12-13T10:52:46.949Z,0.61
2018-12-13T10:55:20.091Z,0.59
2018-12-13T10:57:53.179Z,0.56
2018-12-13T11:00:31.495Z,0.61
2018-12-13T11:03:23.057Z,0.57
2018-12-13T11:05:55.972Z,0.44
2018-12-13T11:08:29.396Z,0.41
2018-12-13T11:11:02.628Z,0.37
2018-12-13T11:13:38.203Z,0.35
2018-12-13T11:16:14.598Z,0.38
2018-12-13T11:18:47.062Z,0.42
2018-12-13T11:21:18.022Z,0.41
2018-12-13T11:23:48.344Z,0.44
2018-12-13T11:26:24.609Z,0.44
2018-12-13T11:29:39.668Z,0.45
2018-12-13T11:32:09.991Z,0.39
2018-12-13T11:34:42.024Z,0.42
2018-12-13T11:37:19.622Z,0.43
2018-12-13T11:39:53.291Z,0.46
2018-12-13T11:42:31.440Z,0.50
2018-12-13T11:45:06.625Z,0.58
2018-12-13T11:47:40.235Z,0.51
2018-12-13T11:50:14.072Z,0.43
2018-12-13T11:52:47.189Z,0.49
2018-12-13T11:55:53.020Z,0.52
2018-12-13T11:58:26.234Z,0.40
2018-12-13T12:00:57.277Z,0.34
2018-12-13T12:03:33.633Z,0.38
2018-12-13T12:06:08.974Z,0.37
2018-12-13T12:08:48.123Z,0.37
2018-12-13T12:11:27.491Z,0.44
2018-12-13T12:14:04.104Z,0.41
2018-12-13T12:16:36.174Z,0.49
2018-12-13T12:19:11.673Z,0.52
2018-12-13T12:21:42.855Z,0.44
2018-12-13T12:24:13.548Z,0.37
2018-12-13T12:26:53.702Z,0.44
2018-12-13T12:29:30.180Z,0.39
2018-12-13T12:32:03.543Z,0.40
2018-12-13T12:34:34.560Z,0.49
2018-12-13T12:37:08.102Z,0.51
2018-12-13T12:39:44.385Z,0.55
2018-12-13T12:42:17.710Z,0.54
2018-12-13T12:44:53.860Z,0.53
2018-12-13T12:47:32.645Z,0.53
2018-12-13T12:50:08.368Z,0.61
2018-12-13T12:52:40.979Z,0.57
2018-12-13T12:55:21.939Z,0.58
2018-12-13T12:57:59.468Z,0.62
2018-12-13T13:00:31.792Z,0.64
2018-12-13T13:03:08.573Z,0.62
2018-12-13T13:05:40.893Z,0.62
2018-12-13T13:08:14.126Z,0.57
2018-12-13T13:10:51.958Z,0.61
2018-12-13T13:13:24.969Z,0.49
2018-12-13T13:16:01.180Z,0.46
2018-12-13T13:18:39.968Z,0.49
2018-12-13T13:21:18.087Z,0.39
2018-12-13T13:23:51.551Z,0.40
2018-12-13T13:26:29.201Z,0.31
2018-12-13T13:29:05.586Z,0.27
2018-12-13T13:31:39.082Z,0.31
2018-12-13T13:34:11.845Z,0.41
2018-12-13T13:36:45.228Z,0.52
2018-12-13T13:39:17.481Z,0.43
2018-12-13T13:41:55.967Z,0.42
2018-12-13T13:44:38.026Z,0.44
2018-12-13T13:47:11.260Z,0.45
2018-12-13T13:49:44.452Z,0.43
2018-12-13T13:52:17.235Z,0.37
2018-12-13T13:54:53.406Z,0.34
2018-12-13T13:57:26.467Z,0.34
2018-12-13T14:00:03.692Z,0.43
2018-12-13T14:02:40.569Z,0.41
2018-12-13T14:05:13.495Z,0.34
2018-12-13T14:07:48.698Z,0.36
2018-12-13T14:10:22.607Z,0.39
2018-12-13T14:12:55.967Z,0.38
2018-12-13T14:15:27.337Z,0.39
2018-12-13T14:18:00.480Z,0.35
2018-12-13T14:20:33.632Z,0.46
2018-12-13T14:23:10.280Z,0.44
2018-12-13T14:25:45.035Z,0.39
2018-12-13T14:28:22.043Z,0.38
2018-12-13T14:30:54.999Z,0.30
2018-12-13T14:33:30.235Z,0.29
2018-12-13T14:36:10.641Z,0.27
2018-12-13T14:38:45.375Z,0.26
2018-12-13T14:41:21.702Z,0.32
2018-12-13T14:44:14.682Z,0.37
2018-12-13T14:46:48.566Z,0.37
2018-12-13T14:49:21.901Z,0.42
2018-12-13T14:51:54.977Z,0.55
2018-12-13T14:54:27.568Z,0.49
2018-12-13T14:57:00.402Z,0.52
2018-12-13T14:59:36.887Z,0.46
2018-12-13T15:02:13.933Z,0.45
2018-12-13T15:04:48.565Z,0.39
2018-12-13T15:07:25.465Z,0.35
2018-12-13T15:09:58.525Z,0.31
2018-12-13T15:12:35.472Z,0.27
2018-12-13T15:15:08.055Z,0.31
2018-12-13T15:17:40.739Z,0.32
2018-12-13T15:20:17.181Z,0.32
2018-12-13T15:22:50.118Z,0.29
2018-12-13T15:25:26.525Z,0.31
2018-12-13T15:28:04.374Z,0.36
2018-12-13T15:30:36.923Z,0.28
2018-12-13T15:33:13.275Z,0.31
2018-12-13T15:35:46.020Z,0.27
2018-12-13T15:38:19.362Z,0.22
2018-12-13T15:40:52.012Z,0.23
2018-12-13T15:43:25.480Z,0.27
2018-12-13T15:45:58.334Z,0.19
2018-12-13T15:48:31.528Z,0.21
2018-12-13T15:51:04.697Z,0.18
2018-12-13T15:53:37.523Z,0.17
2018-12-13T15:56:15.393Z,0.17
2018-12-13T15:58:51.645Z,0.17
2018-12-13T16:01:23.857Z,0.10
2018-12-13T16:04:00.991Z,0.21
2018-12-13T16:06:38.074Z,0.14
2018-12-13T16:09:10.985Z,0.13
2018-12-13T16:11:43.076Z,0.14
2018-12-13T16:14:16.176Z,0.14
2018-12-13T16:16:48.372Z,0.21
2018-12-13T16:19:25.560Z,0.17
2018-12-13T16:21:59.532Z,0.19
2018-12-13T16:24:35.862Z,0.20
2018-12-13T16:27:17.705Z,0.25
2018-12-13T16:29:53.949Z,0.24
2018-12-13T16:32:25.086Z,0.22
2018-12-13T16:42:35.629Z,0.13
2018-12-13T16:45:09.767Z,0.22
2018-12-13T16:47:42.680Z,0.26
2018-12-13T16:50:15.819Z,0.26
2018-12-13T16:52:49.009Z,0.33
2018-12-13T16:55:21.373Z,0.39
2018-12-13T16:57:53.911Z,0.32
2018-12-13T17:00:26.734Z,0.31
2018-12-13T17:03:00.036Z,0.28
2018-12-13T17:05:33.002Z,0.35
2018-12-13T17:08:05.646Z,0.32
2018-12-13T17:10:38.536Z,0.29
2018-12-13T17:13:12.404Z,0.41
2018-12-13T17:15:49.786Z,0.47
2018-12-13T17:18:24.275Z,0.41
2018-12-13T17:20:57.570Z,0.47
2018-12-13T17:23:31.356Z,0.53
2018-12-13T17:26:04.653Z,0.49
2018-12-13T17:28:40.320Z,0.42
2018-12-13T17:31:15.965Z,0.36
2018-12-13T17:33:50.753Z,0.37
2018-12-13T17:36:26.459Z,0.41
2018-12-13T17:39:00.353Z,0.41
2018-12-13T17:41:40.660Z,0.35
2018-12-13T17:49:21.357Z,0.39
2018-12-13T17:54:28.292Z,0.41
2018-12-13T17:57:04.875Z,0.42
2018-12-13T17:59:35.784Z,0.37
2018-12-13T18:02:09.884Z,0.36
2018-12-13T18:04:43.800Z,0.35
2018-12-13T18:07:20.412Z,0.33
2018-12-13T18:09:52.148Z,0.36
2018-12-13T18:12:25.750Z,0.37
2018-12-13T18:15:00.445Z,0.34
2018-12-13T18:17:33.532Z,0.37
2018-12-13T18:20:07.068Z,0.36
2018-12-13T18:22:40.079Z,0.34
2018-12-13T18:25:14.239Z,0.36
2018-12-13T18:27:48.878Z,0.42
2018-12-13T18:30:21.807Z,0.39
2018-12-13T18:32:54.987Z,0.39
2018-12-13T18:35:32.907Z,0.38
2018-12-13T18:38:06.230Z,0.38
2018-12-13T18:40:39.933Z,0.41
2018-12-13T18:43:16.974Z,0.38
2018-12-13T18:45:54.059Z,0.38
2018-12-13T18:48:33.092Z,0.39
2018-12-13T18:51:10.476Z,0.37
2018-12-13T18:53:43.919Z,0.44
2018-12-13T19:06:24.497Z,0.24
2018-12-13T19:09:00.767Z,0.34
2018-12-13T19:11:31.785Z,0.22
2018-12-13T19:14:05.148Z,0.32
2018-12-13T19:16:41.568Z,0.19
2018-12-13T19:19:15.325Z,0.10
2018-12-13T19:21:47.541Z,0.08
2018-12-13T19:24:18.944Z,-0.01
2018-12-13T19:26:57.055Z,-0.01
2018-12-13T19:29:29.949Z,-0.01
2018-12-13T19:32:03.256Z,-0.07
2018-12-13T19:34:36.403Z,-0.06
2018-12-13T19:37:12.857Z,-0.10
2018-12-13T19:39:50.074Z,-0.09
2018-12-13T19:42:27.189Z,-0.04
2018-12-13T19:45:00.323Z,-0.01
2018-12-13T19:47:33.528Z,-0.01
2018-12-13T19:50:04.852Z,-0.08
2018-12-13T19:52:37.778Z,-0.10
2018-12-13T19:55:12.143Z,-0.14
2018-12-13T19:57:45.295Z,-0.16
2018-12-13T20:00:18.533Z,-0.19
2018-12-13T20:02:52.092Z,-0.20
2018-12-13T20:05:25.501Z,-0.17
2018-12-13T20:08:02.642Z,-0.23
2018-12-13T20:10:35.557Z,-0.18
2018-12-13T20:13:06.676Z,-0.20
2018-12-13T20:15:43.919Z,-0.23
2018-12-13T20:18:17.005Z,-0.23
2018-12-13T20:20:50.239Z,-0.23
2018-12-13T20:23:27.240Z,-0.32
2018-12-13T20:26:04.362Z,-0.30
2018-12-13T20:28:41.356Z,-0.35
2018-12-13T20:31:14.442Z,-0.25
2018-12-13T20:33:47.286Z,-0.27
2018-12-13T20:36:18.574Z,-0.24
2018-12-13T20:38:51.720Z,-0.23
2018-12-13T20:41:28.178Z,-0.22
2018-12-13T20:44:01.390Z,-0.25
2018-12-13T20:46:34.155Z,-0.17
2018-12-13T20:49:07.317Z,-0.18
2018-12-13T20:51:40.489Z,-0.15
2018-12-13T20:54:16.721Z,-0.15
2018-12-13T20:56:53.633Z,-0.09
2018-12-13T20:59:26.786Z,-0.19
2018-12-13T21:01:59.239Z,-0.14
2018-12-13T21:04:35.463Z,-0.22
2018-12-13T21:07:17.205Z,-0.30
2018-12-13T21:12:17.977Z,-0.09
2018-12-13T21:14:51.049Z,-0.12
2018-12-13T21:17:28.226Z,-0.13
2018-12-13T21:20:01.216Z,-0.08
2018-12-13T21:22:32.269Z,-0.10
2018-12-13T21:25:08.857Z,-0.12
2018-12-13T21:27:41.826Z,-0.08
2018-12-13T21:30:12.735Z,-0.06
2018-12-13T21:32:45.772Z,-0.03
2018-12-13T21:35:22.230Z,0.14
2018-12-13T21:37:59.334Z,0.33
2018-12-13T21:40:32.576Z,0.26
2018-12-13T21:43:09.669Z,0.25
2018-12-13T21:45:43.049Z,0.34
2018-12-13T21:48:15.585Z,0.38
2018-12-13T21:50:48.977Z,0.35
2018-12-13T21:53:26.089Z,0.34
2018-12-13T21:55:58.756Z,0.35
2018-12-13T21:58:37.893Z,0.29
2018-12-13T22:01:10.622Z,0.39
2018-12-13T22:03:41.592Z,0.54
2018-12-13T22:06:14.021Z,0.49
2018-12-13T22:08:47.114Z,0.33
2018-12-13T22:18:57.101Z,0.64
2018-12-13T22:26:32.671Z,0.54
2018-12-13T22:29:05.066Z,0.38
2018-12-13T22:31:42.475Z,0.52
2018-12-13T22:34:15.868Z,0.65
2018-12-13T22:36:51.098Z,0.59
2018-12-13T22:39:23.824Z,0.51
2018-12-13T22:42:00.936Z,0.46
2018-12-13T22:44:34.235Z,0.41
2018-12-13T22:47:11.359Z,0.46
2018-12-13T22:49:44.576Z,0.40
2018-12-13T22:52:17.487Z,0.35
2018-12-13T22:54:54.645Z,0.34
2018-12-13T22:57:27.929Z,0.29
2018-12-13T23:00:01.028Z,0.29
2018-12-13T23:02:37.663Z,0.50
2018-12-13T23:05:10.560Z,0.48
2018-12-13T23:07:47.479Z,0.45
2018-12-13T23:10:21.771Z,0.33
2018-12-13T23:12:58.098Z,0.26
2018-12-13T23:15:31.776Z,0.23
2018-12-13T23:18:08.865Z,0.24
2018-12-13T23:20:46.009Z,0.21
2018-12-13T23:23:18.294Z,0.25
2018-12-13T23:25:51.172Z,0.33
2018-12-13T23:28:28.430Z,0.28
2018-12-13T23:30:59.508Z,0.31
2018-12-13T23:33:35.835Z,0.30
2018-12-13T23:36:12.688Z,0.36
2018-12-13T23:38:44.925Z,0.23
2018-12-13T23:41:17.848Z,0.26
2018-12-13T23:43:50.879Z,0.24
2018-12-13T23:46:27.820Z,0.16
2018-12-13T23:49:01.027Z,0.10
2018-12-13T23:51:31.848Z,0.12
2018-12-13T23:54:08.192Z,0.20
2018-12-13T23:56:39.154Z,0.16
2018-12-13T23:59:11.571Z,0.17
